Time;durP1;ratioP1;P1;durP2;ratioP2;P2;SDS_P1;SDS_P2;PMS_P1;PMS_P2;Temp;Humidity;BMP_temperature;BMP_pressure;BME280_temperature;BME280_humidity;BME280_pressure;Samples;Min_cycle;Max_cycle;Signal;HPM_P1;HPM_P2
2023/12/08 00:00:26;;;;;;;31.17;14.68;;;;;;;;;;6196263;23;20047;-81
2023/12/08 00:02:53;;;;;;;22.90;13.50;;;;;;;;;;6194847;23;20098;-81
2023/12/08 00:05:19;;;;;;;26.10;13.77;;;;;;;;;;6195938;23;20448;-81
2023/12/08 00:07:45;;;;;;;28.77;15.40;;;;;;;;;;6196137;23;20020;-81
2023/12/08 00:10:12;;;;;;;28.08;14.25;;;;;;;;;;6194974;23;20032;-80
2023/12/08 00:12:38;;;;;;;28.02;13.60;;;;;;;;;;6196052;23;20089;-81
2023/12/08 00:15:05;;;;;;;24.95;12.98;;;;;;;;;;6195966;23;20024;-81
2023/12/08 00:17:32;;;;;;;26.35;14.00;;;;;;;;;;6194729;23;20092;-80
2023/12/08 00:19:58;;;;;;;27.08;14.32;;;;;;;;;;6196101;23;20020;-81
2023/12/08 00:22:24;;;;;;;24.30;12.38;;;;;;;;;;6195835;23;20016;-81
2023/12/08 00:24:50;;;;;;;24.10;11.90;;;;;;;;;;6196398;23;20012;-80
2023/12/08 00:27:16;;;;;;;23.20;12.90;;;;;;;;;;6196041;23;20027;-81
2023/12/08 00:29:43;;;;;;;25.25;13.40;;;;;;;;;;6196333;23;20016;-80
2023/12/08 00:32:09;;;;;;;23.42;13.15;;;;;;;;;;6196542;23;20441;-81
2023/12/08 00:34:35;;;;;;;24.48;12.70;;;;;;;;;;6196098;23;20047;-80
2023/12/08 00:37:01;;;;;;;22.05;11.90;;;;;;;;;;6195406;23;20102;-81
2023/12/08 00:39:27;;;;;;;22.02;13.38;;;;;;;;;;6195251;23;20090;-81
2023/12/08 00:41:53;;;;;;;21.55;12.40;;;;;;;;;;6196217;23;20024;-80
2023/12/08 00:44:19;;;;;;;24.20;12.93;;;;;;;;;;6195034;23;20016;-81
2023/12/08 00:46:45;;;;;;;22.77;11.68;;;;;;;;;;6195538;23;20043;-81
2023/12/08 00:49:12;;;;;;;24.38;13.40;;;;;;;;;;6194710;23;20390;-81
2023/12/08 00:51:38;;;;;;;23.25;13.45;;;;;;;;;;6195930;23;20436;-81
2023/12/08 00:54:04;;;;;;;22.45;12.40;;;;;;;;;;6195569;23;20071;-80
2023/12/08 00:56:30;;;;;;;21.90;11.93;;;;;;;;;;6195874;23;20019;-81
2023/12/08 00:58:56;;;;;;;19.10;11.13;;;;;;;;;;6195648;23;20121;-81
2023/12/08 01:01:22;;;;;;;21.17;12.25;;;;;;;;;;6196513;23;20023;-80
2023/12/08 01:03:48;;;;;;;22.20;12.68;;;;;;;;;;6196071;23;20012;-81
2023/12/08 01:06:15;;;;;;;22.90;12.25;;;;;;;;;;6195359;23;20023;-81
2023/12/08 01:08:41;;;;;;;19.67;11.60;;;;;;;;;;6195714;23;20154;-81
2023/12/08 01:11:08;;;;;;;23.10;13.07;;;;;;;;;;6195441;23;20016;-81
2023/12/08 01:27:04;;;;;;;23.30;12.63;;;;;;;;;;6244512;23;20066;-81
2023/12/08 01:29:31;;;;;;;24.42;12.88;;;;;;;;;;6195506;23;20031;-81
2023/12/08 01:31:59;;;;;;;25.55;14.13;;;;;;;;;;6195798;23;20496;-81
2023/12/08 01:34:25;;;;;;;22.45;12.55;;;;;;;;;;6194780;23;20016;-80
2023/12/08 01:36:51;;;;;;;22.45;12.70;;;;;;;;;;6194195;23;20020;-82
2023/12/08 01:39:18;;;;;;;25.80;13.07;;;;;;;;;;6194947;23;20028;-81
2023/12/08 01:41:44;;;;;;;24.23;12.25;;;;;;;;;;6194522;23;20039;-81
2023/12/08 01:44:10;;;;;;;26.40;12.90;;;;;;;;;;6194998;23;20055;-81
2023/12/08 01:46:37;;;;;;;23.25;12.23;;;;;;;;;;6194972;23;20102;-81
2023/12/08 01:49:03;;;;;;;20.75;12.30;;;;;;;;;;6191863;23;20023;-81
2023/12/08 01:51:29;;;;;;;20.77;12.07;;;;;;;;;;6195906;23;20012;-81
2023/12/08 01:53:56;;;;;;;24.33;12.30;;;;;;;;;;6195061;23;20019;-81
2023/12/08 01:56:22;;;;;;;21.40;12.65;;;;;;;;;;6194677;23;20020;-81
2023/12/08 01:58:48;;;;;;;23.20;12.93;;;;;;;;;;6193897;23;20038;-81
2023/12/08 02:01:14;;;;;;;22.65;12.80;;;;;;;;;;6194468;23;20400;-81
2023/12/08 02:03:41;;;;;;;23.95;13.68;;;;;;;;;;6194046;23;20034;-81
2023/12/08 02:06:07;;;;;;;25.17;12.77;;;;;;;;;;6194425;23;20030;-81
2023/12/08 02:08:33;;;;;;;21.83;12.68;;;;;;;;;;6193721;23;20460;-81
2023/12/08 02:10:59;;;;;;;24.58;13.82;;;;;;;;;;6218713;23;20387;-81
2023/12/08 02:13:25;;;;;;;23.05;12.95;;;;;;;;;;6194695;23;20023;-81
2023/12/08 02:15:54;;;;;;;24.00;13.52;;;;;;;;;;6194796;23;20055;-81
2023/12/08 02:18:21;;;;;;;23.08;12.73;;;;;;;;;;6195101;23;20039;-81
2023/12/08 02:20:47;;;;;;;24.88;13.18;;;;;;;;;;6194589;23;20016;-81
2023/12/08 02:23:13;;;;;;;20.00;12.45;;;;;;;;;;6194204;23;20020;-81
2023/12/08 02:25:40;;;;;;;21.95;12.77;;;;;;;;;;6194965;23;20023;-81
2023/12/08 02:28:07;;;;;;;25.48;14.35;;;;;;;;;;6194795;23;20013;-81
2023/12/08 02:30:33;;;;;;;21.75;12.32;;;;;;;;;;6194714;23;20023;-81
2023/12/08 02:33:08;;;;;;;23.33;13.13;;;;;;;;;;6194204;23;20087;-81
2023/12/08 02:35:36;;;;;;;23.70;14.00;;;;;;;;;;6194596;23;20024;-81
2023/12/08 02:38:02;;;;;;;19.42;11.55;;;;;;;;;;6193661;23;20024;-81
2023/12/08 02:40:28;;;;;;;22.95;13.05;;;;;;;;;;6194746;23;20046;-81
2023/12/08 02:42:54;;;;;;;24.70;13.18;;;;;;;;;;6194924;23;20348;-81
2023/12/08 02:45:21;;;;;;;19.33;12.10;;;;;;;;;;6194519;23;20016;-81
2023/12/08 02:47:47;;;;;;;24.08;13.10;;;;;;;;;;6193505;23;20027;-81
2023/12/08 02:50:13;;;;;;;23.23;12.45;;;;;;;;;;6194407;23;20012;-81
2023/12/08 02:52:39;;;;;;;20.80;12.50;;;;;;;;;;6194571;23;20448;-81
2023/12/08 02:55:12;;;;;;;23.38;13.82;;;;;;;;;;6194214;23;20012;-81
2023/12/08 02:57:39;;;;;;;21.38;12.93;;;;;;;;;;6194476;23;20335;-81
2023/12/08 03:00:05;;;;;;;23.48;13.07;;;;;;;;;;6194709;23;20099;-81
2023/12/08 03:02:31;;;;;;;24.92;13.55;;;;;;;;;;6193949;23;20031;-81
2023/12/08 03:04:57;;;;;;;23.40;12.93;;;;;;;;;;6195068;23;20012;-81
2023/12/08 03:07:23;;;;;;;23.50;13.45;;;;;;;;;;6220367;23;20012;-81
2023/12/08 03:09:49;;;;;;;21.15;12.70;;;;;;;;;;6194855;23;20020;-81
2023/12/08 03:12:16;;;;;;;24.10;13.95;;;;;;;;;;6194888;23;20099;-81
2023/12/08 03:14:42;;;;;;;24.25;14.13;;;;;;;;;;6194641;23;20119;-81
2023/12/08 03:17:08;;;;;;;21.38;11.93;;;;;;;;;;6194250;23;20012;-81
2023/12/08 03:19:34;;;;;;;21.25;12.13;;;;;;;;;;6194698;23;20446;-81
2023/12/08 03:22:00;;;;;;;25.30;13.60;;;;;;;;;;6193812;23;20332;-81
2023/12/08 03:24:26;;;;;;;22.65;12.93;;;;;;;;;;6195066;23;20016;-81
2023/12/08 03:26:52;;;;;;;25.98;13.82;;;;;;;;;;6195329;23;20016;-81
2023/12/08 03:29:19;;;;;;;24.30;13.43;;;;;;;;;;6196292;23;20016;-81
2023/12/08 03:31:45;;;;;;;24.33;13.90;;;;;;;;;;6195440;23;20020;-81
2023/12/08 03:34:11;;;;;;;23.60;13.80;;;;;;;;;;6196794;23;20180;-81
2023/12/08 03:36:37;;;;;;;25.40;13.98;;;;;;;;;;6196487;23;20098;-81
2023/12/08 03:39:03;;;;;;;25.13;14.40;;;;;;;;;;6196342;23;20321;-81
2023/12/08 03:41:29;;;;;;;23.15;13.88;;;;;;;;;;6195229;23;20016;-81
2023/12/08 03:43:55;;;;;;;23.30;13.23;;;;;;;;;;6196298;23;20059;-81
2023/12/08 03:46:21;;;;;;;24.48;13.57;;;;;;;;;;6196859;23;20352;-81
2023/12/08 03:48:48;;;;;;;23.85;14.45;;;;;;;;;;6195893;23;20471;-81
2023/12/08 03:51:14;;;;;;;25.52;13.88;;;;;;;;;;6196242;23;20023;-81
2023/12/08 03:53:40;;;;;;;23.05;12.93;;;;;;;;;;6196086;23;20016;-81
2023/12/08 03:56:07;;;;;;;23.05;13.82;;;;;;;;;;6196573;23;20401;-81
2023/12/08 03:58:33;;;;;;;24.85;13.75;;;;;;;;;;6195587;23;20016;-81
2023/12/08 04:00:59;;;;;;;26.45;14.57;;;;;;;;;;6194377;23;20024;-81
2023/12/08 04:03:25;;;;;;;25.20;13.85;;;;;;;;;;6193882;23;20070;-81
2023/12/08 04:05:52;;;;;;;25.45;14.55;;;;;;;;;;6219270;23;20042;-81
2023/12/08 04:08:18;;;;;;;24.48;13.98;;;;;;;;;;6193907;23;20031;-81
2023/12/08 04:10:44;;;;;;;24.42;13.80;;;;;;;;;;6194303;23;20095;-81
2023/12/08 04:13:11;;;;;;;25.10;14.20;;;;;;;;;;6191874;23;20034;-81
2023/12/08 04:15:39;;;;;;;26.30;13.52;;;;;;;;;;6194250;23;20012;-81
2023/12/08 04:18:06;;;;;;;25.67;14.20;;;;;;;;;;6195187;23;20052;-81
2023/12/08 04:20:32;;;;;;;25.75;13.40;;;;;;;;;;6194736;23;20023;-81
2023/12/08 04:22:58;;;;;;;23.63;13.05;;;;;;;;;;6194970;23;20580;-82
2023/12/08 04:25:25;;;;;;;22.30;12.52;;;;;;;;;;6195795;23;20091;-82
2023/12/08 04:27:51;;;;;;;25.02;13.55;;;;;;;;;;6195277;23;20027;-82
2023/12/08 04:30:17;;;;;;;20.90;12.25;;;;;;;;;;6195455;23;20024;-82
2023/12/08 04:32:43;;;;;;;23.20;13.55;;;;;;;;;;6221235;23;20012;-81
2023/12/08 04:35:09;;;;;;;25.75;13.77;;;;;;;;;;6195823;23;20105;-82
2023/12/08 04:37:35;;;;;;;23.63;12.85;;;;;;;;;;6196041;23;20012;-82
2023/12/08 04:40:02;;;;;;;26.30;14.20;;;;;;;;;;6196379;23;20039;-83
2023/12/08 04:42:28;;;;;;;27.27;13.70;;;;;;;;;;6195593;23;20060;-83
2023/12/08 04:44:55;;;;;;;24.70;12.93;;;;;;;;;;6195740;23;20437;-83
2023/12/08 04:47:21;;;;;;;24.05;13.25;;;;;;;;;;6197681;23;20344;-83
2023/12/08 04:49:47;;;;;;;23.88;13.88;;;;;;;;;;6197780;23;20012;-83
2023/12/08 04:52:13;;;;;;;23.42;14.02;;;;;;;;;;6196984;23;20102;-83
2023/12/08 04:54:39;;;;;;;26.88;13.75;;;;;;;;;;6197700;23;20016;-83
2023/12/08 04:57:05;;;;;;;26.60;14.00;;;;;;;;;;6198182;23;20039;-83
2023/12/08 04:59:31;;;;;;;26.77;15.20;;;;;;;;;;6199093;23;20023;-83
2023/12/08 05:01:58;;;;;;;28.27;15.40;;;;;;;;;;6201064;23;20017;-83
2023/12/08 05:04:24;;;;;;;22.05;12.50;;;;;;;;;;6206696;23;20043;-83
2023/12/08 05:06:50;;;;;;;30.60;15.23;;;;;;;;;;6209039;23;20016;-83
2023/12/08 05:09:16;;;;;;;26.63;14.90;;;;;;;;;;6206618;23;20020;-83
2023/12/08 05:11:42;;;;;;;25.25;13.98;;;;;;;;;;6204045;23;20026;-84
2023/12/08 05:14:08;;;;;;;28.63;16.08;;;;;;;;;;6203598;23;20051;-84
2023/12/08 05:16:34;;;;;;;27.50;15.60;;;;;;;;;;6203023;23;20016;-83
2023/12/08 05:19:00;;;;;;;28.25;15.77;;;;;;;;;;6202823;23;20075;-83
2023/12/08 05:21:26;;;;;;;27.58;12.85;;;;;;;;;;6204292;23;20020;-83
2023/12/08 05:23:53;;;;;;;29.15;14.43;;;;;;;;;;6204218;23;20043;-84
2023/12/08 05:26:20;;;;;;;31.88;15.68;;;;;;;;;;6200622;23;20429;-84
2023/12/08 05:28:46;;;;;;;49.67;23.70;;;;;;;;;;6201670;23;20020;-83
2023/12/08 05:31:12;;;;;;;37.78;18.45;;;;;;;;;;6203383;23;20158;-83
2023/12/08 05:33:38;;;;;;;35.35;19.08;;;;;;;;;;6201554;23;20099;-84
2023/12/08 05:36:04;;;;;;;34.13;17.13;;;;;;;;;;6200938;23;20102;-83
2023/12/08 05:38:30;;;;;;;35.92;18.48;;;;;;;;;;6200662;23;20016;-84
2023/12/08 05:41:00;;;;;;;31.20;17.50;;;;;;;;;;6200056;23;20016;-83
2023/12/08 05:43:29;;;;;;;30.13;16.40;;;;;;;;;;6200141;23;20023;-83
2023/12/08 05:45:55;;;;;;;32.78;16.92;;;;;;;;;;6199696;23;20020;-83
2023/12/08 05:48:21;;;;;;;29.48;16.02;;;;;;;;;;6200642;23;20016;-83
2023/12/08 05:50:47;;;;;;;32.40;16.17;;;;;;;;;;6201339;23;20043;-83
2023/12/08 05:53:14;;;;;;;34.13;17.92;;;;;;;;;;6201597;23;20016;-83
2023/12/08 05:55:40;;;;;;;37.38;17.33;;;;;;;;;;6201080;23;20016;-83
2023/12/08 05:58:06;;;;;;;30.52;16.27;;;;;;;;;;6200943;23;20012;-83
2023/12/08 06:00:33;;;;;;;29.70;15.98;;;;;;;;;;6199841;23;20020;-82
2023/12/08 06:02:59;;;;;;;32.15;15.68;;;;;;;;;;6197423;23;20027;-81
2023/12/08 06:05:25;;;;;;;30.50;14.88;;;;;;;;;;6197354;23;20143;-82
2023/12/08 06:07:51;;;;;;;28.02;15.57;;;;;;;;;;6198448;23;20064;-83
2023/12/08 06:10:17;;;;;;;28.92;16.48;;;;;;;;;;6200693;23;20017;-83
2023/12/08 06:12:43;;;;;;;29.98;16.58;;;;;;;;;;6225996;23;20468;-82
2023/12/08 06:15:11;;;;;;;32.08;16.17;;;;;;;;;;6200813;23;20372;-83
2023/12/08 06:17:37;;;;;;;30.33;16.20;;;;;;;;;;6200828;23;20012;-82
2023/12/08 06:20:10;;;;;;;32.45;17.02;;;;;;;;;;6200560;23;20326;-83
2023/12/08 06:22:37;;;;;;;28.50;16.60;;;;;;;;;;6201138;23;20023;-83
2023/12/08 06:25:03;;;;;;;36.35;19.33;;;;;;;;;;6201416;23;20020;-83
2023/12/08 06:27:29;;;;;;;33.28;17.23;;;;;;;;;;6200156;23;20368;-82
2023/12/08 06:29:55;;;;;;;28.88;14.88;;;;;;;;;;6200659;23;20087;-83
2023/12/08 06:32:21;;;;;;;28.65;15.93;;;;;;;;;;6201866;23;20016;-83
2023/12/08 06:34:47;;;;;;;30.85;17.10;;;;;;;;;;6201293;23;20073;-83
2023/12/08 06:37:14;;;;;;;35.20;17.25;;;;;;;;;;6201138;23;20023;-83
2023/12/08 06:39:40;;;;;;;29.02;14.60;;;;;;;;;;6200083;23;20051;-83
2023/12/08 06:42:07;;;;;;;32.92;15.75;;;;;;;;;;6201160;23;20039;-83
2023/12/08 06:44:33;;;;;;;31.38;16.65;;;;;;;;;;6200042;23;20067;-83
2023/12/08 06:47:01;;;;;;;32.63;17.27;;;;;;;;;;6199783;23;20024;-83
2023/12/08 06:49:27;;;;;;;33.88;16.95;;;;;;;;;;6223831;23;20017;-83
2023/12/08 06:51:54;;;;;;;32.58;16.90;;;;;;;;;;6199781;23;20095;-83
2023/12/08 06:54:20;;;;;;;32.80;16.05;;;;;;;;;;6196113;23;20082;-83
2023/12/08 06:56:46;;;;;;;34.88;16.33;;;;;;;;;;6198867;23;20063;-84
2023/12/08 06:59:12;;;;;;;32.00;16.33;;;;;;;;;;6196255;23;20016;-84
2023/12/08 07:01:38;;;;;;;32.63;16.42;;;;;;;;;;6200101;23;20063;-84
2023/12/08 07:04:04;;;;;;;26.25;14.65;;;;;;;;;;6202244;23;20095;-84
2023/12/08 07:06:31;;;;;;;32.85;16.52;;;;;;;;;;6202648;23;20349;-84
2023/12/08 07:08:57;;;;;;;30.95;15.40;;;;;;;;;;6201803;23;20023;-83
2023/12/08 07:11:23;;;;;;;30.58;15.63;;;;;;;;;;6201961;23;20440;-83
2023/12/08 07:13:49;;;;;;;32.17;16.98;;;;;;;;;;6203596;23;20415;-84
2023/12/08 07:16:16;;;;;;;32.22;16.08;;;;;;;;;;6202998;23;20449;-84
2023/12/08 07:18:42;;;;;;;35.28;16.88;;;;;;;;;;6200919;23;20013;-84
2023/12/08 07:21:08;;;;;;;32.55;17.92;;;;;;;;;;6199138;23;20012;-84
2023/12/08 07:23:35;;;;;;;33.08;16.17;;;;;;;;;;6200242;23;20070;-84
2023/12/08 07:26:01;;;;;;;35.97;16.65;;;;;;;;;;6197996;23;20016;-85
2023/12/08 07:28:31;;;;;;;33.80;17.15;;;;;;;;;;6196119;23;20016;-84
2023/12/08 07:30:57;;;;;;;33.72;17.55;;;;;;;;;;6194418;23;20063;-83
2023/12/08 07:33:23;;;;;;;32.13;16.35;;;;;;;;;;6194612;23;20013;-85
2023/12/08 07:35:49;;;;;;;33.92;17.48;;;;;;;;;;6195770;23;20126;-84
2023/12/08 07:38:40;;;;;;;34.03;18.10;;;;;;;;;;6196508;23;20024;-85
2023/12/08 07:41:18;;;;;;;35.55;17.80;;;;;;;;;;6199702;23;20039;-84
2023/12/08 07:44:34;;;;;;;36.53;19.42;;;;;;;;;;6198405;23;20012;-84
2023/12/08 07:47:33;;;;;;;33.25;16.05;;;;;;;;;;6249840;23;20028;-84
2023/12/08 07:50:37;;;;;;;34.90;16.20;;;;;;;;;;6197577;23;20027;-84
2023/12/08 07:53:17;;;;;;;34.15;17.88;;;;;;;;;;6222298;23;20086;-84
2023/12/08 07:56:07;;;;;;;33.15;17.08;;;;;;;;;;6198184;23;20463;-84
2023/12/08 08:02:25;;;;;;;34.90;16.75;;;;;;;;;;6026214;23;20038;-84
2023/12/08 08:05:36;;;;;;;33.47;17.98;;;;;;;;;;6106208;23;20025;-84
2023/12/08 08:08:21;;;;;;;33.30;17.60;;;;;;;;;;6206815;23;20024;-84
2023/12/08 08:11:23;;;;;;;33.40;16.33;;;;;;;;;;6198677;23;20013;-84
2023/12/08 08:14:05;;;;;;;31.95;16.65;;;;;;;;;;6199593;23;20020;-84
2023/12/08 08:16:34;;;;;;;34.40;17.48;;;;;;;;;;6197212;23;20012;-84
2023/12/08 08:19:00;;;;;;;33.65;17.52;;;;;;;;;;6196837;23;20022;-82
2023/12/08 08:21:29;;;;;;;35.10;17.63;;;;;;;;;;6196768;23;20031;-82
2023/12/08 08:23:55;;;;;;;34.05;16.33;;;;;;;;;;6221480;23;20452;-83
2023/12/08 08:26:23;;;;;;;32.15;17.35;;;;;;;;;;6196306;23;20016;-83
2023/12/08 08:28:50;;;;;;;33.15;16.83;;;;;;;;;;6197242;23;20012;-82
2023/12/08 08:31:19;;;;;;;39.30;19.00;;;;;;;;;;6197001;23;20020;-82
2023/12/08 08:33:54;;;;;;;32.50;17.27;;;;;;;;;;6221777;23;20031;-84
2023/12/08 08:36:21;;;;;;;40.10;18.83;;;;;;;;;;6195762;23;20070;-85
2023/12/08 08:38:47;;;;;;;37.63;18.92;;;;;;;;;;6196264;23;20012;-83
2023/12/08 08:41:13;;;;;;;35.00;18.45;;;;;;;;;;6197584;23;20020;-83
2023/12/08 08:43:39;;;;;;;34.65;18.08;;;;;;;;;;6196119;23;20099;-86
2023/12/08 08:46:05;;;;;;;34.25;17.25;;;;;;;;;;6194799;23;20016;-84
2023/12/08 08:48:32;;;;;;;33.60;17.00;;;;;;;;;;6194273;23;20018;-84
2023/12/08 08:51:06;;;;;;;35.25;17.88;;;;;;;;;;6194993;23;20093;-85
2023/12/08 08:53:51;;;;;;;37.50;18.30;;;;;;;;;;6195461;23;20445;-82
2023/12/08 08:56:18;;;;;;;33.70;16.90;;;;;;;;;;6196694;23;20051;-82
2023/12/08 08:58:45;;;;;;;38.22;19.45;;;;;;;;;;6196837;23;20022;-83
2023/12/08 09:01:14;;;;;;;34.75;17.50;;;;;;;;;;6199915;23;20095;-84
2023/12/08 09:03:40;;;;;;;36.70;17.75;;;;;;;;;;6196636;23;20027;-86
2023/12/08 09:06:10;;;;;;;39.25;18.52;;;;;;;;;;6195548;23;20341;-86
2023/12/08 09:08:36;;;;;;;35.03;18.27;;;;;;;;;;6196813;23;20031;-84
2023/12/08 09:11:02;;;;;;;39.83;18.17;;;;;;;;;;6196821;23;20077;-83
2023/12/08 09:13:31;;;;;;;34.33;17.15;;;;;;;;;;6196784;23;20022;-84
2023/12/08 09:15:58;;;;;;;32.47;16.52;;;;;;;;;;6196387;23;20023;-83
2023/12/08 09:18:26;;;;;;;36.00;18.33;;;;;;;;;;6196843;23;20028;-83
2023/12/08 09:20:53;;;;;;;33.08;16.88;;;;;;;;;;6196644;23;20035;-83
2023/12/08 09:23:19;;;;;;;35.88;17.75;;;;;;;;;;6193334;23;20012;-83
2023/12/08 09:25:45;;;;;;;36.83;18.52;;;;;;;;;;6192578;23;20012;-83
2023/12/08 09:28:12;;;;;;;35.58;18.55;;;;;;;;;;6193182;23;20471;-83
2023/12/08 09:30:38;;;;;;;35.10;17.70;;;;;;;;;;6193264;23;20024;-83
2023/12/08 09:33:07;;;;;;;36.47;16.70;;;;;;;;;;6193533;23;20012;-84
2023/12/08 09:35:33;;;;;;;35.13;18.17;;;;;;;;;;6194189;23;20529;-83
2023/12/08 09:37:59;;;;;;;36.47;19.05;;;;;;;;;;6194541;23;20437;-83
2023/12/08 09:40:27;;;;;;;40.08;18.30;;;;;;;;;;6194831;23;20016;-84
2023/12/08 09:42:56;;;;;;;38.42;18.60;;;;;;;;;;6193838;23;20031;-84
2023/12/08 09:45:22;;;;;;;38.33;19.50;;;;;;;;;;6193817;23;20051;-84
2023/12/08 09:47:50;;;;;;;32.47;17.50;;;;;;;;;;6195045;23;20074;-83
2023/12/08 09:50:16;;;;;;;33.53;17.67;;;;;;;;;;6193916;23;20052;-84
2023/12/08 09:52:43;;;;;;;33.53;17.60;;;;;;;;;;6218511;23;20008;-83
2023/12/08 09:55:13;;;;;;;35.33;17.92;;;;;;;;;;6194074;23;20019;-85
2023/12/08 09:57:41;;;;;;;36.70;19.13;;;;;;;;;;6194358;23;20417;-83
2023/12/08 10:00:11;;;;;;;31.77;17.42;;;;;;;;;;6194144;23;20054;-82
2023/12/08 10:05:29;;;;;;;33.33;17.15;;;;;;;;;;6219487;23;20119;-83
2023/12/08 10:08:22;;;;;;;33.38;18.23;;;;;;;;;;6193960;23;20016;-85
2023/12/08 10:10:48;;;;;;;34.90;17.95;;;;;;;;;;6168590;23;20016;-83
2023/12/08 10:13:17;;;;;;;33.88;17.27;;;;;;;;;;6193457;23;20016;-83
2023/12/08 10:15:44;;;;;;;37.25;18.70;;;;;;;;;;6194752;23;20074;-82
2023/12/08 10:18:22;;;;;;;30.83;16.75;;;;;;;;;;6194473;23;20048;-82
2023/12/08 10:20:48;;;;;;;33.72;17.27;;;;;;;;;;6194653;23;20016;-84
2023/12/08 10:23:19;;;;;;;34.67;19.05;;;;;;;;;;6194522;23;20067;-82
2023/12/08 10:25:47;;;;;;;35.00;18.67;;;;;;;;;;6194673;23;20027;-82
2023/12/08 10:28:16;;;;;;;35.90;19.52;;;;;;;;;;6194422;23;20016;-83
2023/12/08 10:30:46;;;;;;;37.10;19.73;;;;;;;;;;6194465;23;20315;-82
2023/12/08 10:33:21;;;;;;;36.28;17.58;;;;;;;;;;6195547;23;20071;-82
2023/12/08 10:35:48;;;;;;;37.63;19.45;;;;;;;;;;6195949;23;20012;-82
2023/12/08 10:38:15;;;;;;;35.55;18.17;;;;;;;;;;6195795;23;20458;-82
2023/12/08 10:40:51;;;;;;;34.92;18.48;;;;;;;;;;6195673;23;20020;-82
2023/12/08 10:43:23;;;;;;;39.20;20.33;;;;;;;;;;6197132;23;20016;-85
2023/12/08 10:45:53;;;;;;;40.60;20.52;;;;;;;;;;6196869;23;20016;-81
2023/12/08 10:48:22;;;;;;;35.53;18.50;;;;;;;;;;6195847;23;20106;-81
2023/12/08 10:50:49;;;;;;;37.42;17.95;;;;;;;;;;6196533;23;20457;-83
2023/12/08 10:53:19;;;;;;;37.03;19.85;;;;;;;;;;6197120;23;20340;-83
2023/12/08 10:55:51;;;;;;;36.78;19.52;;;;;;;;;;6196922;23;20016;-83
2023/12/08 10:58:19;;;;;;;35.42;18.45;;;;;;;;;;6222615;23;20489;-82
2023/12/08 11:00:46;;;;;;;40.30;18.60;;;;;;;;;;6198086;23;20027;-82
2023/12/08 11:03:19;;;;;;;36.15;17.80;;;;;;;;;;6200557;23;20023;-82
2023/12/08 11:05:47;;;;;;;37.42;18.90;;;;;;;;;;6197634;23;20349;-82
2023/12/08 11:08:16;;;;;;;35.42;18.58;;;;;;;;;;6222361;23;20023;-83
2023/12/08 11:10:44;;;;;;;35.10;18.17;;;;;;;;;;6198192;23;20012;-83
2023/12/08 11:13:20;;;;;;;43.13;21.02;;;;;;;;;;6197393;23;20322;-83
2023/12/08 11:15:54;;;;;;;35.63;19.35;;;;;;;;;;6197815;23;20391;-83
2023/12/08 11:18:30;;;;;;;38.67;18.50;;;;;;;;;;6223137;23;20071;-83
2023/12/08 11:20:56;;;;;;;41.38;19.30;;;;;;;;;;6198036;23;20047;-83
2023/12/08 11:23:24;;;;;;;38.33;19.88;;;;;;;;;;6197732;23;20095;-83
2023/12/08 11:26:22;;;;;;;42.33;19.88;;;;;;;;;;6197452;23;20293;-88
2023/12/08 11:29:10;;;;;;;46.97;21.45;;;;;;;;;;6116978;23;20024;-83
2023/12/08 11:31:55;;;;;;;39.95;21.00;;;;;;;;;;6196849;23;20440;-83
2023/12/08 11:34:24;;;;;;;44.33;21.10;;;;;;;;;;6196846;23;20437;-83
2023/12/08 11:36:50;;;;;;;41.25;20.95;;;;;;;;;;6196966;23;20453;-83
2023/12/08 11:39:35;;;;;;;40.20;19.77;;;;;;;;;;6196976;23;20013;-83
2023/12/08 11:42:10;;;;;;;37.38;20.20;;;;;;;;;;6222985;23;20027;-83
2023/12/08 11:44:37;;;;;;;44.38;21.90;;;;;;;;;;6196305;23;20082;-82
2023/12/08 11:47:11;;;;;;;49.13;23.10;;;;;;;;;;6197351;23;20109;-86
2023/12/08 11:49:38;;;;;;;42.78;21.85;;;;;;;;;;6196241;23;20027;-83
2023/12/08 11:52:24;;;;;;;43.63;20.67;;;;;;;;;;6196064;23;20095;-84
2023/12/08 11:55:22;;;;;;;;;;;;;;;;;;;;;
2023/12/08 11:58:14;;;;;;;45.35;20.90;;;;;;;;;;6220747;23;20036;-83
2023/12/08 12:00:43;;;;;;;37.55;19.60;;;;;;;;;;6196707;23;20476;-83
2023/12/08 12:03:18;;;;;;;46.15;21.42;;;;;;;;;;6197114;23;20062;-84
2023/12/08 12:05:44;;;;;;;44.20;21.45;;;;;;;;;;6197270;23;20464;-83
2023/12/08 12:08:14;;;;;;;47.28;21.35;;;;;;;;;;6196568;23;20449;-83
2023/12/08 12:10:43;;;;;;;40.45;19.40;;;;;;;;;;6196854;23;20024;-85
2023/12/08 12:13:13;;;;;;;40.35;20.95;;;;;;;;;;6196598;23;20066;-83
2023/12/08 12:15:41;;;;;;;46.22;22.23;;;;;;;;;;6196053;23;20027;-83
2023/12/08 12:18:07;;;;;;;40.47;19.02;;;;;;;;;;6196215;23;20016;-83
2023/12/08 12:20:34;;;;;;;40.10;20.17;;;;;;;;;;6197091;23;20484;-83
2023/12/08 12:23:01;;;;;;;43.22;19.80;;;;;;;;;;6197988;23;20030;-83
2023/12/08 12:25:30;;;;;;;46.67;21.48;;;;;;;;;;6196331;23;20024;-83
2023/12/08 12:27:59;;;;;;;43.50;20.90;;;;;;;;;;6221851;23;20020;-83
2023/12/08 12:30:25;;;;;;;46.20;20.00;;;;;;;;;;6222051;23;20024;-83
2023/12/08 12:32:51;;;;;;;39.10;19.23;;;;;;;;;;6222398;23;20027;-83
2023/12/08 12:35:18;;;;;;;48.20;22.08;;;;;;;;;;6196711;23;20020;-83
2023/12/08 12:37:44;;;;;;;45.28;21.48;;;;;;;;;;6197074;23;20020;-83
2023/12/08 12:40:11;;;;;;;39.00;19.52;;;;;;;;;;6197114;23;20024;-83
2023/12/08 12:42:44;;;;;;;46.55;22.02;;;;;;;;;;6197450;23;20016;-83
2023/12/08 12:45:11;;;;;;;45.30;19.92;;;;;;;;;;6197504;23;20020;-83
2023/12/08 12:47:37;;;;;;;46.75;20.80;;;;;;;;;;6197215;23;20027;-83
2023/12/08 12:50:04;;;;;;;47.58;22.00;;;;;;;;;;6196529;23;20555;-82
2023/12/08 12:52:31;;;;;;;49.10;22.83;;;;;;;;;;6197221;23;20055;-83
2023/12/08 12:54:57;;;;;;;41.80;19.92;;;;;;;;;;6221882;23;20022;-83
2023/12/08 12:57:44;;;;;;;52.30;21.52;;;;;;;;;;6196538;23;20012;-83
2023/12/08 13:00:12;;;;;;;42.05;20.42;;;;;;;;;;6199068;23;20046;-83
2023/12/08 13:02:38;;;;;;;44.40;20.38;;;;;;;;;;6199093;23;20024;-83
2023/12/08 13:05:06;;;;;;;50.17;22.00;;;;;;;;;;6198524;23;20015;-83
2023/12/08 13:07:33;;;;;;;47.22;21.50;;;;;;;;;;6222162;23;20444;-83
2023/12/08 13:09:59;;;;;;;49.08;20.60;;;;;;;;;;6197420;23;20019;-82
2023/12/08 13:12:25;;;;;;;53.97;21.83;;;;;;;;;;6196978;23;20353;-83
2023/12/08 13:14:52;;;;;;;48.72;21.13;;;;;;;;;;6222434;23;20051;-83
2023/12/08 13:17:19;;;;;;;48.90;20.33;;;;;;;;;;6222348;23;20024;-83
2023/12/08 13:19:46;;;;;;;48.33;21.15;;;;;;;;;;6221451;23;20012;-83
2023/12/08 13:22:12;;;;;;;48.78;23.00;;;;;;;;;;6222573;23;20075;-83
2023/12/08 13:24:38;;;;;;;47.58;21.05;;;;;;;;;;6221914;23;20091;-83
2023/12/08 13:27:07;;;;;;;47.17;20.75;;;;;;;;;;6194591;23;20031;-84
2023/12/08 13:29:36;;;;;;;51.63;22.13;;;;;;;;;;6194032;23;20519;-84
2023/12/08 13:32:04;;;;;;;45.90;20.80;;;;;;;;;;6194876;23;20051;-83
2023/12/08 13:34:31;;;;;;;43.83;20.02;;;;;;;;;;6197357;23;20393;-83
2023/12/08 13:37:00;;;;;;;47.65;22.27;;;;;;;;;;6198406;23;20092;-84
2023/12/08 13:39:28;;;;;;;44.17;21.25;;;;;;;;;;6196258;23;20016;-83
2023/12/08 13:41:58;;;;;;;42.55;20.60;;;;;;;;;;6221426;23;20068;-85
2023/12/08 13:44:24;;;;;;;43.80;20.38;;;;;;;;;;6196656;23;20461;-83
2023/12/08 13:46:52;;;;;;;44.10;21.00;;;;;;;;;;6198072;23;20046;-83
2023/12/08 13:49:33;;;;;;;47.30;20.60;;;;;;;;;;6199364;23;20012;-83
2023/12/08 13:51:59;;;;;;;45.15;19.88;;;;;;;;;;6195503;23;20031;-83
2023/12/08 13:54:25;;;;;;;46.45;21.10;;;;;;;;;;6196948;23;20040;-84
2023/12/08 13:56:51;;;;;;;42.63;19.40;;;;;;;;;;6222571;23;20352;-83
2023/12/08 13:59:17;;;;;;;45.58;19.48;;;;;;;;;;6199335;23;20345;-83
2023/12/08 14:02:07;;;;;;;50.38;21.77;;;;;;;;;;6199710;23;20179;-83
2023/12/08 14:04:35;;;;;;;47.72;21.10;;;;;;;;;;6180989;23;20154;-83
2023/12/08 14:07:01;;;;;;;49.53;20.42;;;;;;;;;;6224525;23;20345;-83
2023/12/08 14:09:28;;;;;;;47.22;21.27;;;;;;;;;;6199206;23;20020;-84
2023/12/08 14:11:54;;;;;;;47.75;21.40;;;;;;;;;;6199202;23;20016;-83
2023/12/08 14:14:20;;;;;;;41.15;19.95;;;;;;;;;;6199778;23;20016;-83
2023/12/08 14:16:47;;;;;;;52.35;21.77;;;;;;;;;;6199030;23;20016;-83
2023/12/08 14:19:13;;;;;;;48.85;21.35;;;;;;;;;;6200529;23;20023;-83
2023/12/08 14:21:41;;;;;;;51.40;22.60;;;;;;;;;;6199355;23;20500;-83
2023/12/08 14:24:08;;;;;;;45.22;19.88;;;;;;;;;;6199715;23;20019;-83
2023/12/08 14:26:34;;;;;;;51.10;20.58;;;;;;;;;;6200400;23;20024;-83
2023/12/08 14:29:00;;;;;;;50.78;22.17;;;;;;;;;;6198606;23;20016;-83
2023/12/08 14:31:26;;;;;;;48.80;21.40;;;;;;;;;;6200766;23;20016;-83
2023/12/08 14:33:54;;;;;;;50.08;21.70;;;;;;;;;;6200561;23;20023;-83
2023/12/08 14:36:21;;;;;;;50.20;21.08;;;;;;;;;;6200207;23;20016;-83
2023/12/08 14:38:47;;;;;;;58.38;22.52;;;;;;;;;;6200647;23;20318;-83
2023/12/08 14:41:13;;;;;;;53.95;21.52;;;;;;;;;;6201149;23;20049;-83
2023/12/08 14:43:39;;;;;;;51.30;20.30;;;;;;;;;;6195342;23;20051;-84
2023/12/08 14:46:06;;;;;;;60.58;23.27;;;;;;;;;;6194337;23;20480;-83